sensor_id;sensor_type;location;lat;lon;timestamp;P1;durP1;ratioP1;P2;durP2;ratioP2
9799;SDS011;4939;52.00085300;4.17406100;2023-07-31T00:00:33;22.88;;;4.50;;
9799;SDS011;4939;52.00085300;4.17406100;2023-07-31T00:02:59;20.40;;;3.88;;
9799;SDS011;4939;52.00085300;4.17406100;2023-07-31T00:05:24;20.10;;;4.20;;
9799;SDS011;4939;52.00085300;4.17406100;2023-07-31T00:07:50;26.05;;;5.25;;
9799;SDS011;4939;52.00085300;4.17406100;2023-07-31T00:10:16;28.65;;;4.50;;
9799;SDS011;4939;52.00085300;4.17406100;2023-07-31T00:12:45;17.85;;;3.40;;
9799;SDS011;4939;52.00085300;4.17406100;2023-07-31T00:15:12;20.30;;;4.15;;
9799;SDS011;4939;52.00085300;4.17406100;2023-07-31T00:17:39;23.02;;;4.78;;
9799;SDS011;4939;52.00085300;4.17406100;2023-07-31T00:20:05;17.70;;;3.38;;
9799;SDS011;4939;52.00085300;4.17406100;2023-07-31T00:22:31;22.58;;;4.88;;
9799;SDS011;4939;52.00085300;4.17406100;2023-07-31T00:24:57;14.00;;;3.88;;
9799;SDS011;4939;52.00085300;4.17406100;2023-07-31T00:27:22;16.92;;;3.90;;
9799;SDS011;4939;52.00085300;4.17406100;2023-07-31T00:29:48;19.08;;;3.90;;
9799;SDS011;4939;52.00085300;4.17406100;2023-07-31T00:32:14;18.98;;;4.57;;
9799;SDS011;4939;52.00085300;4.17406100;2023-07-31T00:34:40;19.83;;;4.50;;
9799;SDS011;4939;52.00085300;4.17406100;2023-07-31T00:37:05;19.70;;;4.43;;
9799;SDS011;4939;52.00085300;4.17406100;2023-07-31T00:39:33;25.65;;;4.47;;
9799;SDS011;4939;52.00085300;4.17406100;2023-07-31T00:42:02;23.38;;;4.65;;
9799;SDS011;4939;52.00085300;4.17406100;2023-07-31T00:44:27;23.27;;;4.78;;
9799;SDS011;4939;52.00085300;4.17406100;2023-07-31T00:46:53;17.48;;;4.40;;
9799;SDS011;4939;52.00085300;4.17406100;2023-07-31T00:49:21;19.73;;;4.88;;
9799;SDS011;4939;52.00085300;4.17406100;2023-07-31T00:51:47;16.63;;;3.88;;
9799;SDS011;4939;52.00085300;4.17406100;2023-07-31T00:54:13;23.25;;;4.57;;
9799;SDS011;4939;52.00085300;4.17406100;2023-07-31T00:56:39;21.63;;;4.28;;
9799;SDS011;4939;52.00085300;4.17406100;2023-07-31T00:59:06;23.02;;;5.15;;
9799;SDS011;4939;52.00085300;4.17406100;2023-07-31T01:01:32;32.00;;;5.45;;
9799;SDS011;4939;52.00085300;4.17406100;2023-07-31T01:03:58;19.98;;;4.15;;
9799;SDS011;4939;52.00085300;4.17406100;2023-07-31T01:06:31;22.75;;;4.43;;
9799;SDS011;4939;52.00085300;4.17406100;2023-07-31T01:09:07;20.38;;;3.83;;
9799;SDS011;4939;52.00085300;4.17406100;2023-07-31T01:11:46;18.85;;;3.90;;
9799;SDS011;4939;52.00085300;4.17406100;2023-07-31T01:14:17;23.92;;;4.32;;
9799;SDS011;4939;52.00085300;4.17406100;2023-07-31T01:16:42;22.52;;;3.85;;
9799;SDS011;4939;52.00085300;4.17406100;2023-07-31T01:19:08;15.73;;;4.15;;
9799;SDS011;4939;52.00085300;4.17406100;2023-07-31T01:24:41;19.13;;;4.10;;
9799;SDS011;4939;52.00085300;4.17406100;2023-07-31T01:27:24;21.77;;;4.45;;
9799;SDS011;4939;52.00085300;4.17406100;2023-07-31T01:32:42;15.52;;;3.70;;
9799;SDS011;4939;52.00085300;4.17406100;2023-07-31T01:35:11;17.35;;;3.88;;
9799;SDS011;4939;52.00085300;4.17406100;2023-07-31T01:37:37;25.27;;;4.57;;
9799;SDS011;4939;52.00085300;4.17406100;2023-07-31T01:40:03;21.42;;;4.65;;
9799;SDS011;4939;52.00085300;4.17406100;2023-07-31T01:42:29;15.52;;;3.60;;
9799;SDS011;4939;52.00085300;4.17406100;2023-07-31T01:44:55;25.60;;;4.25;;
9799;SDS011;4939;52.00085300;4.17406100;2023-07-31T01:47:20;26.77;;;5.63;;
9799;SDS011;4939;52.00085300;4.17406100;2023-07-31T01:49:46;21.52;;;5.25;;
9799;SDS011;4939;52.00085300;4.17406100;2023-07-31T01:52:13;28.13;;;5.05;;
9799;SDS011;4939;52.00085300;4.17406100;2023-07-31T01:54:38;18.45;;;4.80;;
9799;SDS011;4939;52.00085300;4.17406100;2023-07-31T01:57:04;22.08;;;4.35;;
9799;SDS011;4939;52.00085300;4.17406100;2023-07-31T01:59:30;27.45;;;4.65;;
9799;SDS011;4939;52.00085300;4.17406100;2023-07-31T02:01:55;19.08;;;4.88;;
9799;SDS011;4939;52.00085300;4.17406100;2023-07-31T02:04:21;24.67;;;4.80;;
9799;SDS011;4939;52.00085300;4.17406100;2023-07-31T02:06:46;21.05;;;4.22;;
9799;SDS011;4939;52.00085300;4.17406100;2023-07-31T02:09:12;14.68;;;3.60;;
9799;SDS011;4939;52.00085300;4.17406100;2023-07-31T02:11:38;27.63;;;4.97;;
9799;SDS011;4939;52.00085300;4.17406100;2023-07-31T02:14:03;18.38;;;4.20;;
9799;SDS011;4939;52.00085300;4.17406100;2023-07-31T02:16:29;20.27;;;3.80;;
9799;SDS011;4939;52.00085300;4.17406100;2023-07-31T02:18:55;19.25;;;4.18;;
9799;SDS011;4939;52.00085300;4.17406100;2023-07-31T02:21:21;19.88;;;3.83;;
9799;SDS011;4939;52.00085300;4.17406100;2023-07-31T02:23:48;13.50;;;3.33;;
9799;SDS011;4939;52.00085300;4.17406100;2023-07-31T02:26:14;22.50;;;4.60;;
9799;SDS011;4939;52.00085300;4.17406100;2023-07-31T02:28:40;20.05;;;3.30;;
9799;SDS011;4939;52.00085300;4.17406100;2023-07-31T02:31:08;17.17;;;4.50;;
9799;SDS011;4939;52.00085300;4.17406100;2023-07-31T02:33:33;20.83;;;4.45;;
9799;SDS011;4939;52.00085300;4.17406100;2023-07-31T02:35:59;15.35;;;3.70;;
9799;SDS011;4939;52.00085300;4.17406100;2023-07-31T02:38:25;24.63;;;4.35;;
9799;SDS011;4939;52.00085300;4.17406100;2023-07-31T02:40:50;19.13;;;4.45;;
9799;SDS011;4939;52.00085300;4.17406100;2023-07-31T02:43:16;23.45;;;4.90;;
9799;SDS011;4939;52.00085300;4.17406100;2023-07-31T02:45:41;20.13;;;4.72;;
9799;SDS011;4939;52.00085300;4.17406100;2023-07-31T02:48:07;23.35;;;4.82;;
9799;SDS011;4939;52.00085300;4.17406100;2023-07-31T02:50:33;22.55;;;3.65;;
9799;SDS011;4939;52.00085300;4.17406100;2023-07-31T02:53:00;22.08;;;4.57;;
9799;SDS011;4939;52.00085300;4.17406100;2023-07-31T02:55:25;24.02;;;4.50;;
9799;SDS011;4939;52.00085300;4.17406100;2023-07-31T02:57:51;22.08;;;4.25;;
9799;SDS011;4939;52.00085300;4.17406100;2023-07-31T03:00:17;14.75;;;3.35;;
9799;SDS011;4939;52.00085300;4.17406100;2023-07-31T03:02:43;20.45;;;4.13;;
9799;SDS011;4939;52.00085300;4.17406100;2023-07-31T03:05:08;16.80;;;4.32;;
9799;SDS011;4939;52.00085300;4.17406100;2023-07-31T03:07:34;16.58;;;4.30;;
9799;SDS011;4939;52.00085300;4.17406100;2023-07-31T03:10:00;25.17;;;4.10;;
9799;SDS011;4939;52.00085300;4.17406100;2023-07-31T03:12:26;14.77;;;3.78;;
9799;SDS011;4939;52.00085300;4.17406100;2023-07-31T03:14:51;25.92;;;4.25;;
9799;SDS011;4939;52.00085300;4.17406100;2023-07-31T03:17:17;21.27;;;4.25;;
9799;SDS011;4939;52.00085300;4.17406100;2023-07-31T03:19:43;24.15;;;4.50;;
9799;SDS011;4939;52.00085300;4.17406100;2023-07-31T03:22:08;23.63;;;4.72;;
9799;SDS011;4939;52.00085300;4.17406100;2023-07-31T03:24:34;23.15;;;4.03;;
9799;SDS011;4939;52.00085300;4.17406100;2023-07-31T03:26:59;13.85;;;3.53;;
9799;SDS011;4939;52.00085300;4.17406100;2023-07-31T03:29:25;18.15;;;3.63;;
9799;SDS011;4939;52.00085300;4.17406100;2023-07-31T03:31:50;18.38;;;3.92;;
9799;SDS011;4939;52.00085300;4.17406100;2023-07-31T03:34:16;13.15;;;3.17;;
9799;SDS011;4939;52.00085300;4.17406100;2023-07-31T03:36:43;15.13;;;3.40;;
9799;SDS011;4939;52.00085300;4.17406100;2023-07-31T03:39:09;11.55;;;2.80;;
9799;SDS011;4939;52.00085300;4.17406100;2023-07-31T03:41:35;9.10;;;3.00;;
9799;SDS011;4939;52.00085300;4.17406100;2023-07-31T03:44:00;11.43;;;2.95;;
9799;SDS011;4939;52.00085300;4.17406100;2023-07-31T03:46:26;9.30;;;2.40;;
9799;SDS011;4939;52.00085300;4.17406100;2023-07-31T03:48:52;8.52;;;2.42;;
9799;SDS011;4939;52.00085300;4.17406100;2023-07-31T03:51:17;13.80;;;2.67;;
9799;SDS011;4939;52.00085300;4.17406100;2023-07-31T03:53:43;8.90;;;2.25;;
9799;SDS011;4939;52.00085300;4.17406100;2023-07-31T03:56:13;10.80;;;2.28;;
9799;SDS011;4939;52.00085300;4.17406100;2023-07-31T03:58:39;9.50;;;1.92;;
9799;SDS011;4939;52.00085300;4.17406100;2023-07-31T04:01:04;11.45;;;2.28;;
9799;SDS011;4939;52.00085300;4.17406100;2023-07-31T04:03:30;8.98;;;2.25;;
9799;SDS011;4939;52.00085300;4.17406100;2023-07-31T04:05:56;8.80;;;2.35;;
9799;SDS011;4939;52.00085300;4.17406100;2023-07-31T04:08:23;7.15;;;2.00;;
9799;SDS011;4939;52.00085300;4.17406100;2023-07-31T04:10:49;6.38;;;1.70;;
9799;SDS011;4939;52.00085300;4.17406100;2023-07-31T04:13:15;6.07;;;1.35;;
9799;SDS011;4939;52.00085300;4.17406100;2023-07-31T04:15:42;6.93;;;1.20;;
9799;SDS011;4939;52.00085300;4.17406100;2023-07-31T04:18:12;7.40;;;1.25;;
9799;SDS011;4939;52.00085300;4.17406100;2023-07-31T04:20:38;4.30;;;1.02;;
9799;SDS011;4939;52.00085300;4.17406100;2023-07-31T04:23:03;10.00;;;1.40;;
9799;SDS011;4939;52.00085300;4.17406100;2023-07-31T04:25:30;12.45;;;1.25;;
9799;SDS011;4939;52.00085300;4.17406100;2023-07-31T04:27:56;8.00;;;1.70;;
9799;SDS011;4939;52.00085300;4.17406100;2023-07-31T04:30:22;15.23;;;2.05;;
9799;SDS011;4939;52.00085300;4.17406100;2023-07-31T04:32:48;8.73;;;2.28;;
9799;SDS011;4939;52.00085300;4.17406100;2023-07-31T04:35:14;11.30;;;2.20;;
9799;SDS011;4939;52.00085300;4.17406100;2023-07-31T04:37:39;10.85;;;2.33;;
9799;SDS011;4939;52.00085300;4.17406100;2023-07-31T04:40:05;11.20;;;2.42;;
9799;SDS011;4939;52.00085300;4.17406100;2023-07-31T04:42:31;11.85;;;2.35;;
9799;SDS011;4939;52.00085300;4.17406100;2023-07-31T04:44:57;8.45;;;2.03;;
9799;SDS011;4939;52.00085300;4.17406100;2023-07-31T04:47:23;11.73;;;1.85;;
9799;SDS011;4939;52.00085300;4.17406100;2023-07-31T04:49:49;9.07;;;1.55;;
9799;SDS011;4939;52.00085300;4.17406100;2023-07-31T04:52:15;7.43;;;1.48;;
9799;SDS011;4939;52.00085300;4.17406100;2023-07-31T04:54:40;13.27;;;1.90;;
9799;SDS011;4939;52.00085300;4.17406100;2023-07-31T04:57:06;5.57;;;1.58;;
9799;SDS011;4939;52.00085300;4.17406100;2023-07-31T04:59:32;4.60;;;1.20;;
9799;SDS011;4939;52.00085300;4.17406100;2023-07-31T05:01:57;9.40;;;1.80;;
9799;SDS011;4939;52.00085300;4.17406100;2023-07-31T05:04:23;4.80;;;1.60;;
9799;SDS011;4939;52.00085300;4.17406100;2023-07-31T05:06:49;6.13;;;1.60;;
9799;SDS011;4939;52.00085300;4.17406100;2023-07-31T05:09:14;7.65;;;2.00;;
9799;SDS011;4939;52.00085300;4.17406100;2023-07-31T05:11:40;6.78;;;1.80;;
9799;SDS011;4939;52.00085300;4.17406100;2023-07-31T05:14:07;5.63;;;2.47;;
9799;SDS011;4939;52.00085300;4.17406100;2023-07-31T05:16:33;8.93;;;1.88;;
9799;SDS011;4939;52.00085300;4.17406100;2023-07-31T05:18:59;7.38;;;2.00;;
9799;SDS011;4939;52.00085300;4.17406100;2023-07-31T05:21:25;8.20;;;2.28;;
9799;SDS011;4939;52.00085300;4.17406100;2023-07-31T05:23:50;7.35;;;2.58;;
9799;SDS011;4939;52.00085300;4.17406100;2023-07-31T05:26:16;5.32;;;1.73;;
9799;SDS011;4939;52.00085300;4.17406100;2023-07-31T05:28:42;8.90;;;2.20;;
9799;SDS011;4939;52.00085300;4.17406100;2023-07-31T05:31:08;7.45;;;2.33;;
9799;SDS011;4939;52.00085300;4.17406100;2023-07-31T05:33:33;6.15;;;1.83;;
9799;SDS011;4939;52.00085300;4.17406100;2023-07-31T05:35:59;5.32;;;1.65;;
9799;SDS011;4939;52.00085300;4.17406100;2023-07-31T05:38:25;7.25;;;1.80;;
9799;SDS011;4939;52.00085300;4.17406100;2023-07-31T05:40:50;6.85;;;1.67;;
9799;SDS011;4939;52.00085300;4.17406100;2023-07-31T05:43:16;8.15;;;2.00;;
9799;SDS011;4939;52.00085300;4.17406100;2023-07-31T05:45:43;8.73;;;2.20;;
9799;SDS011;4939;52.00085300;4.17406100;2023-07-31T05:48:08;12.13;;;1.95;;
9799;SDS011;4939;52.00085300;4.17406100;2023-07-31T05:50:34;8.73;;;1.92;;
9799;SDS011;4939;52.00085300;4.17406100;2023-07-31T05:53:00;10.82;;;1.40;;
9799;SDS011;4939;52.00085300;4.17406100;2023-07-31T05:55:25;9.35;;;2.65;;
9799;SDS011;4939;52.00085300;4.17406100;2023-07-31T05:57:54;9.82;;;2.17;;
9799;SDS011;4939;52.00085300;4.17406100;2023-07-31T06:00:20;11.13;;;2.95;;
9799;SDS011;4939;52.00085300;4.17406100;2023-07-31T06:02:46;11.85;;;2.47;;
9799;SDS011;4939;52.00085300;4.17406100;2023-07-31T06:05:14;9.00;;;1.98;;
9799;SDS011;4939;52.00085300;4.17406100;2023-07-31T06:07:39;10.32;;;2.42;;
9799;SDS011;4939;52.00085300;4.17406100;2023-07-31T06:10:05;10.68;;;2.72;;
9799;SDS011;4939;52.00085300;4.17406100;2023-07-31T06:12:32;10.77;;;2.67;;
9799;SDS011;4939;52.00085300;4.17406100;2023-07-31T06:14:58;14.20;;;2.42;;
9799;SDS011;4939;52.00085300;4.17406100;2023-07-31T06:17:24;11.02;;;1.95;;
9799;SDS011;4939;52.00085300;4.17406100;2023-07-31T06:19:50;14.00;;;1.95;;
9799;SDS011;4939;52.00085300;4.17406100;2023-07-31T06:22:16;3.97;;;1.05;;
9799;SDS011;4939;52.00085300;4.17406100;2023-07-31T06:24:42;13.93;;;2.63;;
9799;SDS011;4939;52.00085300;4.17406100;2023-07-31T06:27:08;10.80;;;2.80;;
9799;SDS011;4939;52.00085300;4.17406100;2023-07-31T06:29:34;16.73;;;2.80;;
9799;SDS011;4939;52.00085300;4.17406100;2023-07-31T06:32:00;7.07;;;1.92;;
9799;SDS011;4939;52.00085300;4.17406100;2023-07-31T06:34:26;8.32;;;1.92;;
9799;SDS011;4939;52.00085300;4.17406100;2023-07-31T06:36:51;11.15;;;3.13;;
9799;SDS011;4939;52.00085300;4.17406100;2023-07-31T06:39:17;12.02;;;3.08;;
9799;SDS011;4939;52.00085300;4.17406100;2023-07-31T06:41:43;14.65;;;3.28;;
9799;SDS011;4939;52.00085300;4.17406100;2023-07-31T06:44:09;12.93;;;3.05;;
9799;SDS011;4939;52.00085300;4.17406100;2023-07-31T06:46:35;20.02;;;3.05;;
9799;SDS011;4939;52.00085300;4.17406100;2023-07-31T06:49:01;13.70;;;2.80;;
9799;SDS011;4939;52.00085300;4.17406100;2023-07-31T06:51:26;16.92;;;3.10;;
9799;SDS011;4939;52.00085300;4.17406100;2023-07-31T06:53:52;12.20;;;3.03;;
9799;SDS011;4939;52.00085300;4.17406100;2023-07-31T06:56:18;16.58;;;3.72;;
9799;SDS011;4939;52.00085300;4.17406100;2023-07-31T06:58:43;16.05;;;3.15;;
9799;SDS011;4939;52.00085300;4.17406100;2023-07-31T07:01:12;16.23;;;3.35;;
9799;SDS011;4939;52.00085300;4.17406100;2023-07-31T07:03:38;11.88;;;2.10;;
9799;SDS011;4939;52.00085300;4.17406100;2023-07-31T07:06:03;11.52;;;2.67;;
9799;SDS011;4939;52.00085300;4.17406100;2023-07-31T07:08:29;9.63;;;1.65;;
9799;SDS011;4939;52.00085300;4.17406100;2023-07-31T07:10:54;11.13;;;2.63;;
9799;SDS011;4939;52.00085300;4.17406100;2023-07-31T07:13:21;12.82;;;2.88;;
9799;SDS011;4939;52.00085300;4.17406100;2023-07-31T07:15:50;9.73;;;2.67;;
9799;SDS011;4939;52.00085300;4.17406100;2023-07-31T07:18:16;12.27;;;2.95;;
9799;SDS011;4939;52.00085300;4.17406100;2023-07-31T07:20:46;15.38;;;2.92;;
9799;SDS011;4939;52.00085300;4.17406100;2023-07-31T07:23:16;18.60;;;3.08;;
9799;SDS011;4939;52.00085300;4.17406100;2023-07-31T07:25:42;24.27;;;3.58;;
9799;SDS011;4939;52.00085300;4.17406100;2023-07-31T07:28:08;10.90;;;2.42;;
9799;SDS011;4939;52.00085300;4.17406100;2023-07-31T07:30:34;11.32;;;3.00;;
9799;SDS011;4939;52.00085300;4.17406100;2023-07-31T07:33:00;13.60;;;2.40;;
9799;SDS011;4939;52.00085300;4.17406100;2023-07-31T07:35:26;12.15;;;2.50;;
9799;SDS011;4939;52.00085300;4.17406100;2023-07-31T07:37:51;17.35;;;3.00;;
9799;SDS011;4939;52.00085300;4.17406100;2023-07-31T07:40:17;12.98;;;2.30;;
9799;SDS011;4939;52.00085300;4.17406100;2023-07-31T07:42:42;17.80;;;2.15;;
9799;SDS011;4939;52.00085300;4.17406100;2023-07-31T07:45:08;16.85;;;2.35;;
9799;SDS011;4939;52.00085300;4.17406100;2023-07-31T07:47:34;16.70;;;2.67;;
9799;SDS011;4939;52.00085300;4.17406100;2023-07-31T07:50:00;16.48;;;2.30;;
9799;SDS011;4939;52.00085300;4.17406100;2023-07-31T07:52:25;11.80;;;2.35;;
9799;SDS011;4939;52.00085300;4.17406100;2023-07-31T07:54:51;16.52;;;2.03;;
9799;SDS011;4939;52.00085300;4.17406100;2023-07-31T07:57:17;15.57;;;3.80;;
9799;SDS011;4939;52.00085300;4.17406100;2023-07-31T07:59:43;16.67;;;2.78;;
9799;SDS011;4939;52.00085300;4.17406100;2023-07-31T08:02:09;13.32;;;2.00;;
9799;SDS011;4939;52.00085300;4.17406100;2023-07-31T08:04:35;10.68;;;2.15;;
9799;SDS011;4939;52.00085300;4.17406100;2023-07-31T08:07:01;7.82;;;1.80;;
9799;SDS011;4939;52.00085300;4.17406100;2023-07-31T08:09:27;16.15;;;2.30;;
9799;SDS011;4939;52.00085300;4.17406100;2023-07-31T08:11:52;13.60;;;2.17;;
9799;SDS011;4939;52.00085300;4.17406100;2023-07-31T08:14:18;12.48;;;2.42;;
9799;SDS011;4939;52.00085300;4.17406100;2023-07-31T08:16:44;13.35;;;2.35;;
9799;SDS011;4939;52.00085300;4.17406100;2023-07-31T08:19:09;12.50;;;2.67;;
9799;SDS011;4939;52.00085300;4.17406100;2023-07-31T08:21:35;14.07;;;2.67;;
9799;SDS011;4939;52.00085300;4.17406100;2023-07-31T08:24:01;10.25;;;2.40;;
9799;SDS011;4939;52.00085300;4.17406100;2023-07-31T08:26:27;14.38;;;2.40;;
9799;SDS011;4939;52.00085300;4.17406100;2023-07-31T08:28:53;9.48;;;2.17;;
9799;SDS011;4939;52.00085300;4.17406100;2023-07-31T08:31:19;8.27;;;1.67;;
9799;SDS011;4939;52.00085300;4.17406100;2023-07-31T08:33:45;10.90;;;1.83;;
9799;SDS011;4939;52.00085300;4.17406100;2023-07-31T08:36:12;12.18;;;2.05;;
9799;SDS011;4939;52.00085300;4.17406100;2023-07-31T08:38:37;12.13;;;1.90;;
9799;SDS011;4939;52.00085300;4.17406100;2023-07-31T08:41:03;9.57;;;1.60;;
9799;SDS011;4939;52.00085300;4.17406100;2023-07-31T08:43:30;13.82;;;2.15;;
9799;SDS011;4939;52.00085300;4.17406100;2023-07-31T08:45:57;13.80;;;2.72;;
9799;SDS011;4939;52.00085300;4.17406100;2023-07-31T08:48:23;8.50;;;1.75;;
9799;SDS011;4939;52.00085300;4.17406100;2023-07-31T08:50:51;14.73;;;1.92;;
9799;SDS011;4939;52.00085300;4.17406100;2023-07-31T08:53:18;14.18;;;2.28;;
9799;SDS011;4939;52.00085300;4.17406100;2023-07-31T08:55:46;11.75;;;1.40;;
9799;SDS011;4939;52.00085300;4.17406100;2023-07-31T08:58:12;10.27;;;2.00;;
9799;SDS011;4939;52.00085300;4.17406100;2023-07-31T09:00:39;8.02;;;1.85;;
9799;SDS011;4939;52.00085300;4.17406100;2023-07-31T09:03:09;9.95;;;1.77;;
9799;SDS011;4939;52.00085300;4.17406100;2023-07-31T09:05:45;10.82;;;1.92;;
9799;SDS011;4939;52.00085300;4.17406100;2023-07-31T09:08:12;9.98;;;2.15;;
9799;SDS011;4939;52.00085300;4.17406100;2023-07-31T09:10:40;11.93;;;1.80;;
9799;SDS011;4939;52.00085300;4.17406100;2023-07-31T09:13:13;6.60;;;1.60;;
9799;SDS011;4939;52.00085300;4.17406100;2023-07-31T09:15:39;8.55;;;1.80;;
9799;SDS011;4939;52.00085300;4.17406100;2023-07-31T09:18:07;7.03;;;1.50;;
9799;SDS011;4939;52.00085300;4.17406100;2023-07-31T09:20:33;11.82;;;1.88;;
9799;SDS011;4939;52.00085300;4.17406100;2023-07-31T09:25:36;10.45;;;2.65;;
9799;SDS011;4939;52.00085300;4.17406100;2023-07-31T09:28:11;10.45;;;1.77;;
9799;SDS011;4939;52.00085300;4.17406100;2023-07-31T09:30:44;11.23;;;2.00;;
9799;SDS011;4939;52.00085300;4.17406100;2023-07-31T09:33:16;14.27;;;2.55;;
9799;SDS011;4939;52.00085300;4.17406100;2023-07-31T09:35:43;10.85;;;2.40;;
9799;SDS011;4939;52.00085300;4.17406100;2023-07-31T09:38:13;13.98;;;2.45;;
9799;SDS011;4939;52.00085300;4.17406100;2023-07-31T09:40:40;15.07;;;3.63;;
9799;SDS011;4939;52.00085300;4.17406100;2023-07-31T09:43:08;13.35;;;2.47;;
9799;SDS011;4939;52.00085300;4.17406100;2023-07-31T09:45:40;8.80;;;1.92;;
9799;SDS011;4939;52.00085300;4.17406100;2023-07-31T09:48:14;8.65;;;2.00;;
9799;SDS011;4939;52.00085300;4.17406100;2023-07-31T09:50:44;8.98;;;1.45;;
9799;SDS011;4939;52.00085300;4.17406100;2023-07-31T09:53:11;7.60;;;1.67;;
9799;SDS011;4939;52.00085300;4.17406100;2023-07-31T09:55:37;10.75;;;2.20;;
9799;SDS011;4939;52.00085300;4.17406100;2023-07-31T09:58:07;13.63;;;1.88;;
9799;SDS011;4939;52.00085300;4.17406100;2023-07-31T10:00:34;13.45;;;1.95;;
9799;SDS011;4939;52.00085300;4.17406100;2023-07-31T10:03:08;10.95;;;2.03;;
9799;SDS011;4939;52.00085300;4.17406100;2023-07-31T10:05:36;19.80;;;2.42;;
9799;SDS011;4939;52.00085300;4.17406100;2023-07-31T10:08:06;11.50;;;2.10;;
9799;SDS011;4939;52.00085300;4.17406100;2023-07-31T10:10:36;10.10;;;1.98;;
9799;SDS011;4939;52.00085300;4.17406100;2023-07-31T10:13:06;10.60;;;1.40;;
9799;SDS011;4939;52.00085300;4.17406100;2023-07-31T10:15:32;11.60;;;2.53;;
9799;SDS011;4939;52.00085300;4.17406100;2023-07-31T10:17:58;9.85;;;2.10;;
9799;SDS011;4939;52.00085300;4.17406100;2023-07-31T10:20:27;8.50;;;1.45;;
9799;SDS011;4939;52.00085300;4.17406100;2023-07-31T10:22:57;11.25;;;2.45;;
9799;SDS011;4939;52.00085300;4.17406100;2023-07-31T10:25:24;10.25;;;1.77;;
9799;SDS011;4939;52.00085300;4.17406100;2023-07-31T10:27:51;11.57;;;1.80;;
9799;SDS011;4939;52.00085300;4.17406100;2023-07-31T10:30:18;8.23;;;1.70;;
9799;SDS011;4939;52.00085300;4.17406100;2023-07-31T10:32:50;10.68;;;1.90;;
9799;SDS011;4939;52.00085300;4.17406100;2023-07-31T10:35:17;13.77;;;2.30;;
9799;SDS011;4939;52.00085300;4.17406100;2023-07-31T10:37:43;12.15;;;2.20;;
9799;SDS011;4939;52.00085300;4.17406100;2023-07-31T10:40:11;9.95;;;1.73;;
9799;SDS011;4939;52.00085300;4.17406100;2023-07-31T10:42:44;13.52;;;2.00;;
9799;SDS011;4939;52.00085300;4.17406100;2023-07-31T10:50:54;5.93;;;1.45;;
9799;SDS011;4939;52.00085300;4.17406100;2023-07-31T10:53:24;12.18;;;1.95;;
9799;SDS011;4939;52.00085300;4.17406100;2023-07-31T10:55:58;10.13;;;1.63;;
9799;SDS011;4939;52.00085300;4.17406100;2023-07-31T10:58:40;8.02;;;1.88;;
9799;SDS011;4939;52.00085300;4.17406100;2023-07-31T11:01:09;7.63;;;1.60;;
9799;SDS011;4939;52.00085300;4.17406100;2023-07-31T11:03:48;8.27;;;1.90;;
9799;SDS011;4939;52.00085300;4.17406100;2023-07-31T11:06:19;11.55;;;2.00;;
9799;SDS011;4939;52.00085300;4.17406100;2023-07-31T11:08:45;7.03;;;1.40;;
9799;SDS011;4939;52.00085300;4.17406100;2023-07-31T11:11:14;8.05;;;1.30;;
9799;SDS011;4939;52.00085300;4.17406100;2023-07-31T11:13:44;7.78;;;1.80;;
9799;SDS011;4939;52.00085300;4.17406100;2023-07-31T11:16:18;10.25;;;1.67;;
9799;SDS011;4939;52.00085300;4.17406100;2023-07-31T11:18:45;5.63;;;1.10;;
9799;SDS011;4939;52.00085300;4.17406100;2023-07-31T11:21:25;8.57;;;1.42;;
9799;SDS011;4939;52.00085300;4.17406100;2023-07-31T11:23:51;9.63;;;1.45;;
9799;SDS011;4939;52.00085300;4.17406100;2023-07-31T11:26:20;7.93;;;1.52;;
9799;SDS011;4939;52.00085300;4.17406100;2023-07-31T11:28:49;9.52;;;1.33;;
9799;SDS011;4939;52.00085300;4.17406100;2023-07-31T11:31:16;7.10;;;1.35;;
9799;SDS011;4939;52.00085300;4.17406100;2023-07-31T11:33:42;4.97;;;0.98;;
9799;SDS011;4939;52.00085300;4.17406100;2023-07-31T11:36:18;5.82;;;1.40;;
9799;SDS011;4939;52.00085300;4.17406100;2023-07-31T11:38:46;5.68;;;1.42;;
9799;SDS011;4939;52.00085300;4.17406100;2023-07-31T11:41:13;9.07;;;1.30;;
9799;SDS011;4939;52.00085300;4.17406100;2023-07-31T11:43:43;8.47;;;1.73;;
9799;SDS011;4939;52.00085300;4.17406100;2023-07-31T11:46:10;5.97;;;1.48;;
9799;SDS011;4939;52.00085300;4.17406100;2023-07-31T11:48:36;7.75;;;1.25;;
9799;SDS011;4939;52.00085300;4.17406100;2023-07-31T11:51:03;7.40;;;1.70;;
9799;SDS011;4939;52.00085300;4.17406100;2023-07-31T11:53:44;7.30;;;1.17;;
9799;SDS011;4939;52.00085300;4.17406100;2023-07-31T11:56:14;8.35;;;1.48;;
9799;SDS011;4939;52.00085300;4.17406100;2023-07-31T11:58:43;4.78;;;1.15;;
9799;SDS011;4939;52.00085300;4.17406100;2023-07-31T12:01:11;7.13;;;1.40;;
9799;SDS011;4939;52.00085300;4.17406100;2023-07-31T12:03:39;9.15;;;1.60;;
9799;SDS011;4939;52.00085300;4.17406100;2023-07-31T12:06:07;7.85;;;1.75;;
9799;SDS011;4939;52.00085300;4.17406100;2023-07-31T12:08:32;7.57;;;1.40;;
9799;SDS011;4939;52.00085300;4.17406100;2023-07-31T12:11:02;5.50;;;1.08;;
9799;SDS011;4939;52.00085300;4.17406100;2023-07-31T12:13:34;6.95;;;1.10;;
9799;SDS011;4939;52.00085300;4.17406100;2023-07-31T12:16:01;7.47;;;1.30;;
9799;SDS011;4939;52.00085300;4.17406100;2023-07-31T12:18:28;5.72;;;1.33;;
9799;SDS011;4939;52.00085300;4.17406100;2023-07-31T12:20:57;8.18;;;1.40;;
9799;SDS011;4939;52.00085300;4.17406100;2023-07-31T12:23:27;9.25;;;2.20;;
9799;SDS011;4939;52.00085300;4.17406100;2023-07-31T12:26:07;4.85;;;1.38;;
9799;SDS011;4939;52.00085300;4.17406100;2023-07-31T12:28:42;7.80;;;1.33;;
9799;SDS011;4939;52.00085300;4.17406100;2023-07-31T12:31:10;5.53;;;1.33;;
9799;SDS011;4939;52.00085300;4.17406100;2023-07-31T12:33:37;4.68;;;1.60;;
9799;SDS011;4939;52.00085300;4.17406100;2023-07-31T12:36:06;5.50;;;1.23;;
9799;SDS011;4939;52.00085300;4.17406100;2023-07-31T12:38:36;4.93;;;1.25;;
9799;SDS011;4939;52.00085300;4.17406100;2023-07-31T12:41:01;5.00;;;1.10;;
9799;SDS011;4939;52.00085300;4.17406100;2023-07-31T12:43:27;3.25;;;0.70;;
9799;SDS011;4939;52.00085300;4.17406100;2023-07-31T12:45:54;6.03;;;1.30;;
9799;SDS011;4939;52.00085300;4.17406100;2023-07-31T12:48:21;4.05;;;1.00;;
9799;SDS011;4939;52.00085300;4.17406100;2023-07-31T12:50:48;5.80;;;1.30;;
9799;SDS011;4939;52.00085300;4.17406100;2023-07-31T12:53:15;3.92;;;1.35;;
9799;SDS011;4939;52.00085300;4.17406100;2023-07-31T12:55:41;6.28;;;1.98;;
9799;SDS011;4939;52.00085300;4.17406100;2023-07-31T12:58:06;7.03;;;1.85;;
9799;SDS011;4939;52.00085300;4.17406100;2023-07-31T13:00:32;4.10;;;1.67;;
9799;SDS011;4939;52.00085300;4.17406100;2023-07-31T13:02:59;6.75;;;2.05;;
9799;SDS011;4939;52.00085300;4.17406100;2023-07-31T13:05:27;7.40;;;2.10;;
9799;SDS011;4939;52.00085300;4.17406100;2023-07-31T13:07:53;5.25;;;1.50;;
9799;SDS011;4939;52.00085300;4.17406100;2023-07-31T13:10:19;5.38;;;1.83;;
9799;SDS011;4939;52.00085300;4.17406100;2023-07-31T13:12:47;7.80;;;1.85;;
9799;SDS011;4939;52.00085300;4.17406100;2023-07-31T13:15:12;5.47;;;1.80;;
9799;SDS011;4939;52.00085300;4.17406100;2023-07-31T13:17:39;11.32;;;2.15;;